sensor_id;sensor_type;location;lat;lon;timestamp;pressure;altitude;pressure_sealevel;temperature;humidity
20710;BME280;10516;51.518;9.864;2023-07-31T00:00:29;98396.09;;;17.65;76.48
20710;BME280;10516;51.518;9.864;2023-07-31T00:02:55;98376.44;;;17.64;76.58
20710;BME280;10516;51.518;9.864;2023-07-31T00:05:21;98366.88;;;17.45;76.87
20710;BME280;10516;51.518;9.864;2023-07-31T00:07:47;98384.59;;;17.73;77.42
20710;BME280;10516;51.518;9.864;2023-07-31T00:10:12;98362.56;;;17.57;77.39
20710;BME280;10516;51.518;9.864;2023-07-31T00:12:39;98359.69;;;17.54;77.46
20710;BME280;10516;51.518;9.864;2023-07-31T00:15:06;98350.03;;;17.61;77.50
20710;BME280;10516;51.518;9.864;2023-07-31T00:17:32;98366.25;;;17.61;77.50
20710;BME280;10516;51.518;9.864;2023-07-31T00:19:57;98377.09;;;17.70;77.83
20710;BME280;10516;51.518;9.864;2023-07-31T00:22:22;98371.53;;;17.66;77.83
20710;BME280;10516;51.518;9.864;2023-07-31T00:24:48;98370.25;;;17.64;77.76
20710;BME280;10516;51.518;9.864;2023-07-31T00:27:13;98354.38;;;17.49;78.04
20710;BME280;10516;51.518;9.864;2023-07-31T00:29:39;98360.56;;;17.49;78.43
20710;BME280;10516;51.518;9.864;2023-07-31T00:32:05;98356.38;;;17.43;79.22
20710;BME280;10516;51.518;9.864;2023-07-31T00:34:30;98346.81;;;17.37;78.99
20710;BME280;10516;51.518;9.864;2023-07-31T00:36:55;98332.91;;;17.08;79.40
20710;BME280;10516;51.518;9.864;2023-07-31T00:39:21;98344.03;;;17.29;78.78
20710;BME280;10516;51.518;9.864;2023-07-31T00:41:46;98326.28;;;17.14;78.82
20710;BME280;10516;51.518;9.864;2023-07-31T00:44:12;98323.13;;;16.98;79.59
20710;BME280;10516;51.518;9.864;2023-07-31T00:46:37;98325.72;;;17.03;79.42
20710;BME280;10516;51.518;9.864;2023-07-31T00:49:03;98318.72;;;17.02;79.46
20710;BME280;10516;51.518;9.864;2023-07-31T00:51:29;98329.69;;;17.06;79.62
20710;BME280;10516;51.518;9.864;2023-07-31T00:53:55;98330.81;;;17.05;79.48
20710;BME280;10516;51.518;9.864;2023-07-31T00:56:21;98318.63;;;17.07;79.23
20710;BME280;10516;51.518;9.864;2023-07-31T00:58:47;98312.75;;;16.92;79.77
20710;BME280;10516;51.518;9.864;2023-07-31T01:01:12;98318.16;;;16.92;80.32
20710;BME280;10516;51.518;9.864;2023-07-31T01:03:37;98310.84;;;16.92;79.52
20710;BME280;10516;51.518;9.864;2023-07-31T01:11:19;98294.59;;;16.84;79.87
20710;BME280;10516;51.518;9.864;2023-07-31T01:13:47;98306.47;;;16.96;79.62
20710;BME280;10516;51.518;9.864;2023-07-31T01:16:13;98290.69;;;16.90;79.66
20710;BME280;10516;51.518;9.864;2023-07-31T01:18:38;98290.78;;;16.98;79.52
20710;BME280;10516;51.518;9.864;2023-07-31T01:21:23;98277.59;;;16.97;79.11
20710;BME280;10516;51.518;9.864;2023-07-31T01:26:34;98287.91;;;16.95;79.52
20710;BME280;10516;51.518;9.864;2023-07-31T01:29:10;98271.53;;;16.78;80.11
20710;BME280;10516;51.518;9.864;2023-07-31T01:31:39;98286.22;;;16.72;80.32
20710;BME280;10516;51.518;9.864;2023-07-31T01:34:09;98279.41;;;16.88;79.79
20710;BME280;10516;51.518;9.864;2023-07-31T01:36:35;98272.91;;;16.89;79.82
20710;BME280;10516;51.518;9.864;2023-07-31T01:39:01;98272.81;;;16.80;79.93
20710;BME280;10516;51.518;9.864;2023-07-31T01:41:27;98260.66;;;16.83;79.95
20710;BME280;10516;51.518;9.864;2023-07-31T01:43:52;98254.69;;;16.59;80.42
20710;BME280;10516;51.518;9.864;2023-07-31T01:46:18;98246.91;;;16.71;80.25
20710;BME280;10516;51.518;9.864;2023-07-31T01:48:43;98244.03;;;16.54;80.44
20710;BME280;10516;51.518;9.864;2023-07-31T01:51:08;98239.50;;;16.49;80.50
20710;BME280;10516;51.518;9.864;2023-07-31T01:53:34;98259.88;;;16.69;79.95
20710;BME280;10516;51.518;9.864;2023-07-31T01:55:59;98252.31;;;16.71;80.00
20710;BME280;10516;51.518;9.864;2023-07-31T01:58:25;98250.59;;;16.61;79.93
20710;BME280;10516;51.518;9.864;2023-07-31T02:00:50;98232.91;;;16.69;79.58
20710;BME280;10516;51.518;9.864;2023-07-31T02:03:16;98242.72;;;16.65;79.21
20710;BME280;10516;51.518;9.864;2023-07-31T02:05:48;98235.81;;;16.72;79.10
20710;BME280;10516;51.518;9.864;2023-07-31T02:08:14;98239.03;;;16.61;79.57
20710;BME280;10516;51.518;9.864;2023-07-31T02:10:40;98225.63;;;16.69;79.19
20710;BME280;10516;51.518;9.864;2023-07-31T02:13:05;98232.13;;;16.68;79.62
20710;BME280;10516;51.518;9.864;2023-07-31T02:15:31;98230.53;;;16.67;79.36
20710;BME280;10516;51.518;9.864;2023-07-31T02:17:57;98204.41;;;16.40;79.21
20710;BME280;10516;51.518;9.864;2023-07-31T02:20:22;98210.59;;;16.55;79.07
20710;BME280;10516;51.518;9.864;2023-07-31T02:22:47;98229.13;;;16.70;79.03
20710;BME280;10516;51.518;9.864;2023-07-31T02:25:13;98214.38;;;16.54;79.69
20710;BME280;10516;51.518;9.864;2023-07-31T02:27:38;98227.66;;;16.64;78.90
20710;BME280;10516;51.518;9.864;2023-07-31T02:30:04;98223.84;;;16.65;78.97
20710;BME280;10516;51.518;9.864;2023-07-31T02:32:29;98229.31;;;16.73;78.45
20710;BME280;10516;51.518;9.864;2023-07-31T02:34:55;98230.13;;;16.74;78.98
20710;BME280;10516;51.518;9.864;2023-07-31T02:37:20;98222.75;;;16.66;78.55
20710;BME280;10516;51.518;9.864;2023-07-31T02:39:45;98223.50;;;16.80;78.46
20710;BME280;10516;51.518;9.864;2023-07-31T02:42:11;98223.00;;;16.78;79.06
20710;BME280;10516;51.518;9.864;2023-07-31T02:44:36;98215.75;;;16.65;79.32
20710;BME280;10516;51.518;9.864;2023-07-31T02:47:02;98220.94;;;16.47;80.64
20710;BME280;10516;51.518;9.864;2023-07-31T02:49:28;98203.44;;;16.50;80.30
20710;BME280;10516;51.518;9.864;2023-07-31T02:51:53;98217.97;;;16.63;80.11
20710;BME280;10516;51.518;9.864;2023-07-31T02:54:19;98222.47;;;16.54;80.55
20710;BME280;10516;51.518;9.864;2023-07-31T02:56:46;98205.41;;;16.44;81.17
20710;BME280;10516;51.518;9.864;2023-07-31T02:59:12;98215.25;;;16.49;80.61
20710;BME280;10516;51.518;9.864;2023-07-31T03:01:37;98215.97;;;16.68;80.91
20710;BME280;10516;51.518;9.864;2023-07-31T03:04:03;98199.03;;;16.54;80.46
20710;BME280;10516;51.518;9.864;2023-07-31T03:06:28;98204.69;;;16.66;80.77
20710;BME280;10516;51.518;9.864;2023-07-31T03:08:54;98202.09;;;16.47;81.05
20710;BME280;10516;51.518;9.864;2023-07-31T03:11:19;98199.34;;;16.53;80.88
20710;BME280;10516;51.518;9.864;2023-07-31T03:13:44;98196.22;;;16.45;81.34
20710;BME280;10516;51.518;9.864;2023-07-31T03:16:10;98199.00;;;16.40;81.41
20710;BME280;10516;51.518;9.864;2023-07-31T03:18:35;98196.22;;;16.45;81.27
20710;BME280;10516;51.518;9.864;2023-07-31T03:21:01;98210.81;;;16.44;81.03
20710;BME280;10516;51.518;9.864;2023-07-31T03:23:26;98207.41;;;16.53;80.86
20710;BME280;10516;51.518;9.864;2023-07-31T03:25:59;98203.31;;;16.55;81.32
20710;BME280;10516;51.518;9.864;2023-07-31T03:28:24;98210.19;;;16.47;81.66
20710;BME280;10516;51.518;9.864;2023-07-31T03:30:51;98207.97;;;16.49;81.72
20710;BME280;10516;51.518;9.864;2023-07-31T03:33:16;98197.19;;;16.49;81.68
20710;BME280;10516;51.518;9.864;2023-07-31T03:35:41;98211.28;;;16.46;82.02
20710;BME280;10516;51.518;9.864;2023-07-31T03:38:07;98199.31;;;16.39;82.29
20710;BME280;10516;51.518;9.864;2023-07-31T03:40:32;98199.22;;;16.44;82.17
20710;BME280;10516;51.518;9.864;2023-07-31T03:42:57;98209.28;;;16.38;82.11
20710;BME280;10516;51.518;9.864;2023-07-31T03:45:23;98218.56;;;16.46;82.53
20710;BME280;10516;51.518;9.864;2023-07-31T03:47:48;98198.91;;;16.32;82.10
20710;BME280;10516;51.518;9.864;2023-07-31T03:50:14;98209.69;;;16.45;82.40
20710;BME280;10516;51.518;9.864;2023-07-31T03:52:41;98189.34;;;16.26;82.56
20710;BME280;10516;51.518;9.864;2023-07-31T03:55:07;98208.50;;;16.52;82.19
20710;BME280;10516;51.518;9.864;2023-07-31T03:57:32;98209.31;;;16.52;81.74
20710;BME280;10516;51.518;9.864;2023-07-31T03:59:58;98207.09;;;16.40;82.02
20710;BME280;10516;51.518;9.864;2023-07-31T04:02:23;98202.50;;;16.41;81.99
20710;BME280;10516;51.518;9.864;2023-07-31T04:04:49;98208.09;;;16.44;82.30
20710;BME280;10516;51.518;9.864;2023-07-31T04:07:14;98208.19;;;16.39;82.41
20710;BME280;10516;51.518;9.864;2023-07-31T04:09:39;98203.97;;;16.47;81.80
20710;BME280;10516;51.518;9.864;2023-07-31T04:12:05;98209.59;;;16.37;82.17
20710;BME280;10516;51.518;9.864;2023-07-31T04:14:30;98209.47;;;16.56;81.50
20710;BME280;10516;51.518;9.864;2023-07-31T04:16:56;98207.00;;;16.59;81.64
20710;BME280;10516;51.518;9.864;2023-07-31T04:19:21;98218.19;;;16.53;81.33
20710;BME280;10516;51.518;9.864;2023-07-31T04:21:46;98216.78;;;16.41;81.93
20710;BME280;10516;51.518;9.864;2023-07-31T04:24:12;98206.50;;;16.43;81.28
20710;BME280;10516;51.518;9.864;2023-07-31T04:26:37;98208.19;;;16.39;81.47
20710;BME280;10516;51.518;9.864;2023-07-31T04:29:02;98225.38;;;16.57;81.43
20710;BME280;10516;51.518;9.864;2023-07-31T04:31:28;98216.88;;;16.64;80.93
20710;BME280;10516;51.518;9.864;2023-07-31T04:33:53;98214.81;;;16.33;81.68
20710;BME280;10516;51.518;9.864;2023-07-31T04:36:19;98202.81;;;16.39;81.12
20710;BME280;10516;51.518;9.864;2023-07-31T04:38:44;98204.78;;;16.47;81.27
20710;BME280;10516;51.518;9.864;2023-07-31T04:41:09;98214.59;;;16.57;80.99
20710;BME280;10516;51.518;9.864;2023-07-31T04:43:35;98202.03;;;16.53;81.11
20710;BME280;10516;51.518;9.864;2023-07-31T04:46:00;98200.41;;;16.52;80.47
20710;BME280;10516;51.518;9.864;2023-07-31T04:48:25;98204.69;;;16.39;81.35
20710;BME280;10516;51.518;9.864;2023-07-31T04:50:51;98213.19;;;16.60;80.46
20710;BME280;10516;51.518;9.864;2023-07-31T04:53:16;98214.97;;;16.37;81.70
20710;BME280;10516;51.518;9.864;2023-07-31T04:55:41;98218.59;;;16.60;81.10
20710;BME280;10516;51.518;9.864;2023-07-31T04:58:07;98217.38;;;16.52;80.54
20710;BME280;10516;51.518;9.864;2023-07-31T05:00:32;98221.44;;;16.49;80.81
20710;BME280;10516;51.518;9.864;2023-07-31T05:02:58;98203.00;;;16.57;80.34
20710;BME280;10516;51.518;9.864;2023-07-31T05:05:23;98207.00;;;16.59;80.72
20710;BME280;10516;51.518;9.864;2023-07-31T05:07:48;98202.41;;;16.60;80.07
20710;BME280;10516;51.518;9.864;2023-07-31T05:10:14;98221.38;;;16.41;80.91
20710;BME280;10516;51.518;9.864;2023-07-31T05:12:39;98205.03;;;16.51;80.39
20710;BME280;10516;51.518;9.864;2023-07-31T05:15:05;98199.72;;;16.46;81.03
20710;BME280;10516;51.518;9.864;2023-07-31T05:17:30;98212.88;;;16.61;79.79
20710;BME280;10516;51.518;9.864;2023-07-31T05:19:56;98211.34;;;16.69;79.52
20710;BME280;10516;51.518;9.864;2023-07-31T05:22:21;98214.97;;;16.64;79.52
20710;BME280;10516;51.518;9.864;2023-07-31T05:24:47;98215.19;;;16.54;80.25
20710;BME280;10516;51.518;9.864;2023-07-31T05:27:12;98208.41;;;16.57;80.16
20710;BME280;10516;51.518;9.864;2023-07-31T05:29:40;98218.34;;;16.42;80.54
20710;BME280;10516;51.518;9.864;2023-07-31T05:32:06;98200.13;;;16.53;79.59
20710;BME280;10516;51.518;9.864;2023-07-31T05:34:31;98220.06;;;16.66;78.91
20710;BME280;10516;51.518;9.864;2023-07-31T05:36:57;98213.19;;;16.60;79.28
20710;BME280;10516;51.518;9.864;2023-07-31T05:39:22;98235.91;;;16.67;78.62
20710;BME280;10516;51.518;9.864;2023-07-31T05:41:47;98211.41;;;16.55;78.64
20710;BME280;10516;51.518;9.864;2023-07-31T05:44:13;98225.13;;;16.67;78.99
20710;BME280;10516;51.518;9.864;2023-07-31T05:46:38;98225.34;;;16.71;78.66
20710;BME280;10516;51.518;9.864;2023-07-31T05:49:03;98211.97;;;16.66;78.23
20710;BME280;10516;51.518;9.864;2023-07-31T05:51:29;98226.03;;;16.76;78.45
20710;BME280;10516;51.518;9.864;2023-07-31T05:53:54;98211.25;;;16.74;78.43
20710;BME280;10516;51.518;9.864;2023-07-31T05:56:19;98215.13;;;16.81;78.36
20710;BME280;10516;51.518;9.864;2023-07-31T05:58:45;98199.81;;;16.68;78.67
20710;BME280;10516;51.518;9.864;2023-07-31T06:01:10;98217.53;;;16.83;77.95
20710;BME280;10516;51.518;9.864;2023-07-31T06:03:36;98216.91;;;16.86;78.34
20710;BME280;10516;51.518;9.864;2023-07-31T06:06:01;98211.63;;;16.81;78.53
20710;BME280;10516;51.518;9.864;2023-07-31T06:08:26;98209.31;;;16.88;77.91
20710;BME280;10516;51.518;9.864;2023-07-31T06:10:52;98223.41;;;16.85;77.93
20710;BME280;10516;51.518;9.864;2023-07-31T06:13:17;98212.72;;;16.80;77.96
20710;BME280;10516;51.518;9.864;2023-07-31T06:15:43;98200.78;;;16.72;78.35
20710;BME280;10516;51.518;9.864;2023-07-31T06:18:08;98216.84;;;16.77;78.28
20710;BME280;10516;51.518;9.864;2023-07-31T06:20:34;98210.41;;;16.87;77.41
20710;BME280;10516;51.518;9.864;2023-07-31T06:23:00;98198.16;;;16.81;77.34
20710;BME280;10516;51.518;9.864;2023-07-31T06:25:25;98211.41;;;16.91;77.58
20710;BME280;10516;51.518;9.864;2023-07-31T06:27:50;98221.59;;;16.94;77.74
20710;BME280;10516;51.518;9.864;2023-07-31T06:30:16;98212.41;;;16.95;77.55
20710;BME280;10516;51.518;9.864;2023-07-31T06:32:42;98217.09;;;16.89;77.67
20710;BME280;10516;51.518;9.864;2023-07-31T06:35:08;98223.63;;;16.88;78.04
20710;BME280;10516;51.518;9.864;2023-07-31T06:37:33;98219.88;;;16.98;77.38
20710;BME280;10516;51.518;9.864;2023-07-31T06:39:59;98213.09;;;16.87;77.52
20710;BME280;10516;51.518;9.864;2023-07-31T06:42:24;98220.97;;;16.97;77.34
20710;BME280;10516;51.518;9.864;2023-07-31T06:44:50;98224.03;;;17.04;77.05
20710;BME280;10516;51.518;9.864;2023-07-31T06:47:15;98205.09;;;16.95;76.75
20710;BME280;10516;51.518;9.864;2023-07-31T06:49:40;98212.19;;;16.91;77.32
20710;BME280;10516;51.518;9.864;2023-07-31T06:52:06;98224.28;;;16.94;77.20
20710;BME280;10516;51.518;9.864;2023-07-31T06:54:31;98214.91;;;16.91;77.04
20710;BME280;10516;51.518;9.864;2023-07-31T06:56:57;98206.38;;;16.98;76.62
20710;BME280;10516;51.518;9.864;2023-07-31T06:59:22;98207.09;;;17.03;77.04
20710;BME280;10516;51.518;9.864;2023-07-31T07:01:47;98216.09;;;16.99;77.09
20710;BME280;10516;51.518;9.864;2023-07-31T07:04:14;98219.03;;;17.11;77.27
20710;BME280;10516;51.518;9.864;2023-07-31T07:06:40;98217.78;;;17.17;76.95
20710;BME280;10516;51.518;9.864;2023-07-31T07:09:06;98217.72;;;17.08;77.13
20710;BME280;10516;51.518;9.864;2023-07-31T07:11:31;98199.59;;;17.00;77.28
20710;BME280;10516;51.518;9.864;2023-07-31T07:13:57;98207.63;;;17.14;77.34
20710;BME280;10516;51.518;9.864;2023-07-31T07:16:22;98217.63;;;17.13;77.88
20710;BME280;10516;51.518;9.864;2023-07-31T07:18:47;98216.00;;;17.12;77.91
20710;BME280;10516;51.518;9.864;2023-07-31T07:21:13;98212.81;;;17.10;78.23
20710;BME280;10516;51.518;9.864;2023-07-31T07:23:41;98216.53;;;17.14;77.97
20710;BME280;10516;51.518;9.864;2023-07-31T07:26:06;98220.69;;;17.20;77.52
20710;BME280;10516;51.518;9.864;2023-07-31T07:28:32;98209.53;;;17.13;79.10
20710;BME280;10516;51.518;9.864;2023-07-31T07:30:57;98214.25;;;17.08;79.94
20710;BME280;10516;51.518;9.864;2023-07-31T07:33:23;98221.59;;;17.16;80.55
20710;BME280;10516;51.518;9.864;2023-07-31T07:35:48;98213.88;;;17.01;81.69
20710;BME280;10516;51.518;9.864;2023-07-31T07:38:14;98220.91;;;17.10;81.77
20710;BME280;10516;51.518;9.864;2023-07-31T07:40:40;98204.06;;;17.05;81.58
20710;BME280;10516;51.518;9.864;2023-07-31T07:43:06;98216.63;;;17.09;82.35
20710;BME280;10516;51.518;9.864;2023-07-31T07:45:31;98224.78;;;16.96;83.52
20710;BME280;10516;51.518;9.864;2023-07-31T07:47:56;98203.31;;;16.91;83.17
20710;BME280;10516;51.518;9.864;2023-07-31T07:50:23;98225.25;;;16.98;83.50
20710;BME280;10516;51.518;9.864;2023-07-31T07:52:48;98234.47;;;16.97;83.86
20710;BME280;10516;51.518;9.864;2023-07-31T07:55:13;98217.97;;;16.98;83.74
20710;BME280;10516;51.518;9.864;2023-07-31T07:57:39;98217.28;;;16.93;83.91
20710;BME280;10516;51.518;9.864;2023-07-31T08:00:05;98215.94;;;17.04;83.63
20710;BME280;10516;51.518;9.864;2023-07-31T08:02:31;98204.66;;;17.02;84.26
20710;BME280;10516;51.518;9.864;2023-07-31T08:04:56;98203.56;;;17.03;85.14
20710;BME280;10516;51.518;9.864;2023-07-31T08:07:21;98205.66;;;17.06;84.76
20710;BME280;10516;51.518;9.864;2023-07-31T08:09:48;98204.44;;;17.12;84.77
20710;BME280;10516;51.518;9.864;2023-07-31T08:12:13;98199.00;;;17.03;85.07
20710;BME280;10516;51.518;9.864;2023-07-31T08:14:39;98191.44;;;17.14;85.03
20710;BME280;10516;51.518;9.864;2023-07-31T08:17:04;98180.13;;;17.03;85.96
20710;BME280;10516;51.518;9.864;2023-07-31T08:19:29;98185.25;;;17.13;85.54
20710;BME280;10516;51.518;9.864;2023-07-31T08:21:55;98184.94;;;17.15;85.36
20710;BME280;10516;51.518;9.864;2023-07-31T08:24:20;98181.69;;;17.27;84.04
20710;BME280;10516;51.518;9.864;2023-07-31T08:26:46;98164.75;;;17.35;83.51
20710;BME280;10516;51.518;9.864;2023-07-31T08:29:14;98174.34;;;17.41;83.94
20710;BME280;10516;51.518;9.864;2023-07-31T08:31:39;98162.53;;;17.37;84.95
20710;BME280;10516;51.518;9.864;2023-07-31T08:34:05;98168.13;;;17.40;83.85
20710;BME280;10516;51.518;9.864;2023-07-31T08:36:30;98163.09;;;17.47;83.70
20710;BME280;10516;51.518;9.864;2023-07-31T08:38:55;98176.28;;;17.49;83.85
20710;BME280;10516;51.518;9.864;2023-07-31T08:41:21;98185.09;;;17.63;83.51
20710;BME280;10516;51.518;9.864;2023-07-31T08:43:46;98178.06;;;17.53;83.56
20710;BME280;10516;51.518;9.864;2023-07-31T08:46:12;98173.84;;;17.69;83.18
20710;BME280;10516;51.518;9.864;2023-07-31T08:48:41;98172.53;;;17.58;83.31
20710;BME280;10516;51.518;9.864;2023-07-31T08:51:06;98177.06;;;17.49;83.45
20710;BME280;10516;51.518;9.864;2023-07-31T08:53:32;98183.88;;;17.47;83.29
20710;BME280;10516;51.518;9.864;2023-07-31T08:55:58;98160.59;;;17.29;82.64
20710;BME280;10516;51.518;9.864;2023-07-31T08:58:25;98188.97;;;17.26;83.28
20710;BME280;10516;51.518;9.864;2023-07-31T09:00:51;98162.00;;;17.26;82.91
20710;BME280;10516;51.518;9.864;2023-07-31T09:03:18;98167.97;;;17.45;82.09
20710;BME280;10516;51.518;9.864;2023-07-31T09:05:45;98174.94;;;17.60;82.62
20710;BME280;10516;51.518;9.864;2023-07-31T09:08:13;98158.25;;;17.58;81.89
20710;BME280;10516;51.518;9.864;2023-07-31T09:10:42;98151.44;;;17.60;82.59
20710;BME280;10516;51.518;9.864;2023-07-31T09:13:08;98158.16;;;17.71;82.30
20710;BME280;10516;51.518;9.864;2023-07-31T09:15:35;98169.63;;;17.77;82.71
20710;BME280;10516;51.518;9.864;2023-07-31T09:18:01;98165.31;;;17.76;82.19
20710;BME280;10516;51.518;9.864;2023-07-31T09:20:27;98164.88;;;17.91;82.07
20710;BME280;10516;51.518;9.864;2023-07-31T09:22:54;98148.50;;;17.79;82.03
20710;BME280;10516;51.518;9.864;2023-07-31T09:25:25;98151.56;;;17.94;81.39
20710;BME280;10516;51.518;9.864;2023-07-31T09:27:57;98153.97;;;17.96;81.56
20710;BME280;10516;51.518;9.864;2023-07-31T09:30:22;98159.88;;;18.07;80.57
20710;BME280;10516;51.518;9.864;2023-07-31T09:32:50;98141.75;;;17.98;81.03
20710;BME280;10516;51.518;9.864;2023-07-31T09:37:40;98132.34;;;17.96;80.52
20710;BME280;10516;51.518;9.864;2023-07-31T09:40:06;98137.16;;;18.08;79.88
20710;BME280;10516;51.518;9.864;2023-07-31T09:42:34;98131.91;;;18.11;80.65
20710;BME280;10516;51.518;9.864;2023-07-31T09:45:09;98133.88;;;18.28;79.52
20710;BME280;10516;51.518;9.864;2023-07-31T09:47:34;98129.28;;;18.37;79.54
20710;BME280;10516;51.518;9.864;2023-07-31T09:50:00;98138.97;;;18.38;79.23
20710;BME280;10516;51.518;9.864;2023-07-31T09:52:26;98117.34;;;18.38;80.04
20710;BME280;10516;51.518;9.864;2023-07-31T09:54:52;98134.06;;;18.48;79.98
20710;BME280;10516;51.518;9.864;2023-07-31T09:57:21;98128.03;;;18.60;78.49
20710;BME280;10516;51.518;9.864;2023-07-31T09:59:47;98129.63;;;18.61;78.31
20710;BME280;10516;51.518;9.864;2023-07-31T10:02:15;98127.25;;;18.59;78.86
20710;BME280;10516;51.518;9.864;2023-07-31T10:04:46;98118.19;;;18.55;78.35
20710;BME280;10516;51.518;9.864;2023-07-31T10:07:14;98114.06;;;18.49;78.81
20710;BME280;10516;51.518;9.864;2023-07-31T10:09:42;98137.56;;;18.49;79.41
20710;BME280;10516;51.518;9.864;2023-07-31T10:12:10;98119.91;;;18.43;79.83
20710;BME280;10516;51.518;9.864;2023-07-31T10:14:37;98112.41;;;18.40;80.15
20710;BME280;10516;51.518;9.864;2023-07-31T10:17:05;98109.91;;;18.43;79.83
20710;BME280;10516;51.518;9.864;2023-07-31T10:19:32;98100.06;;;18.47;78.81
20710;BME280;10516;51.518;9.864;2023-07-31T10:21:57;98108.19;;;18.47;79.34
20710;BME280;10516;51.518;9.864;2023-07-31T10:24:24;98111.19;;;18.54;78.22
20710;BME280;10516;51.518;9.864;2023-07-31T10:26:51;98101.81;;;18.52;78.20
20710;BME280;10516;51.518;9.864;2023-07-31T10:29:18;98097.97;;;18.70;77.74
20710;BME280;10516;51.518;9.864;2023-07-31T10:31:46;98095.44;;;18.82;77.73
20710;BME280;10516;51.518;9.864;2023-07-31T10:34:13;98093.81;;;18.90;77.43
20710;BME280;10516;51.518;9.864;2023-07-31T10:36:39;98099.22;;;18.98;77.53
20710;BME280;10516;51.518;9.864;2023-07-31T10:39:34;98097.47;;;19.02;76.73
20710;BME280;10516;51.518;9.864;2023-07-31T10:42:09;98084.75;;;18.94;76.91
20710;BME280;10516;51.518;9.864;2023-07-31T10:44:34;98105.75;;;19.06;76.50
20710;BME280;10516;51.518;9.864;2023-07-31T10:47:00;98105.59;;;19.11;76.25
20710;BME280;10516;51.518;9.864;2023-07-31T10:49:29;98102.69;;;19.07;76.47
20710;BME280;10516;51.518;9.864;2023-07-31T10:51:56;98087.59;;;19.15;76.28
20710;BME280;10516;51.518;9.864;2023-07-31T10:54:22;98083.91;;;19.19;76.43
20710;BME280;10516;51.518;9.864;2023-07-31T10:56:50;98080.50;;;19.31;75.77
20710;BME280;10516;51.518;9.864;2023-07-31T10:59:17;98071.28;;;19.32;75.38
20710;BME280;10516;51.518;9.864;2023-07-31T11:01:56;98062.41;;;19.23;75.50
20710;BME280;10516;51.518;9.864;2023-07-31T11:04:27;98056.34;;;19.26;75.56
20710;BME280;10516;51.518;9.864;2023-07-31T11:06:58;98086.88;;;19.43;75.48
20710;BME280;10516;51.518;9.864;2023-07-31T11:09:27;98083.22;;;19.48;75.16
20710;BME280;10516;51.518;9.864;2023-07-31T11:11:53;98054.03;;;19.54;74.80
20710;BME280;10516;51.518;9.864;2023-07-31T11:14:19;98041.50;;;19.40;74.31
20710;BME280;10516;51.518;9.864;2023-07-31T11:16:45;98053.31;;;19.36;74.68
20710;BME280;10516;51.518;9.864;2023-07-31T11:19:10;98071.94;;;19.37;74.86
20710;BME280;10516;51.518;9.864;2023-07-31T11:21:36;98075.91;;;19.31;74.66
20710;BME280;10516;51.518;9.864;2023-07-31T11:24:01;98048.38;;;19.29;74.08
20710;BME280;10516;51.518;9.864;2023-07-31T11:26:27;98053.44;;;19.48;73.85
20710;BME280;10516;51.518;9.864;2023-07-31T11:28:53;98039.91;;;19.48;73.72
20710;BME280;10516;51.518;9.864;2023-07-31T11:31:18;98052.41;;;19.61;74.07
20710;BME280;10516;51.518;9.864;2023-07-31T11:33:44;98057.75;;;19.78;73.16
20710;BME280;10516;51.518;9.864;2023-07-31T11:36:17;98043.81;;;19.88;72.81
20710;BME280;10516;51.518;9.864;2023-07-31T11:38:43;98037.34;;;20.01;72.87
20710;BME280;10516;51.518;9.864;2023-07-31T11:41:08;98037.63;;;20.08;71.44
20710;BME280;10516;51.518;9.864;2023-07-31T11:43:34;98046.41;;;20.05;71.69
20710;BME280;10516;51.518;9.864;2023-07-31T11:46:02;98047.81;;;20.11;71.25
20710;BME280;10516;51.518;9.864;2023-07-31T11:48:34;98035.63;;;19.97;71.74
20710;BME280;10516;51.518;9.864;2023-07-31T11:51:05;98027.03;;;19.95;71.32
20710;BME280;10516;51.518;9.864;2023-07-31T11:55:58;98026.69;;;20.26;71.04
20710;BME280;10516;51.518;9.864;2023-07-31T11:58:24;98031.50;;;20.20;71.71
20710;BME280;10516;51.518;9.864;2023-07-31T12:00:50;98034.34;;;20.44;71.45
20710;BME280;10516;51.518;9.864;2023-07-31T12:03:16;98023.16;;;20.46;70.70
20710;BME280;10516;51.518;9.864;2023-07-31T12:05:42;98019.72;;;20.57;70.30
20710;BME280;10516;51.518;9.864;2023-07-31T12:08:11;98032.41;;;20.65;69.96
20710;BME280;10516;51.518;9.864;2023-07-31T12:10:37;98027.91;;;20.69;70.24
20710;BME280;10516;51.518;9.864;2023-07-31T12:13:09;98031.06;;;20.71;70.22
20710;BME280;10516;51.518;9.864;2023-07-31T12:15:40;98025.81;;;20.54;71.70
20710;BME280;10516;51.518;9.864;2023-07-31T12:18:11;98020.00;;;20.23;72.39
20710;BME280;10516;51.518;9.864;2023-07-31T12:20:48;98027.06;;;20.15;72.43
20710;BME280;10516;51.518;9.864;2023-07-31T12:23:22;98026.88;;;20.21;72.84
20710;BME280;10516;51.518;9.864;2023-07-31T12:28:45;98035.53;;;20.35;72.19
20710;BME280;10516;51.518;9.864;2023-07-31T12:31:12;98022.19;;;20.30;72.20
20710;BME280;10516;51.518;9.864;2023-07-31T12:33:39;98037.91;;;20.36;72.50
20710;BME280;10516;51.518;9.864;2023-07-31T12:36:13;98033.38;;;20.28;72.52
20710;BME280;10516;51.518;9.864;2023-07-31T12:38:39;98037.16;;;20.06;73.59
20710;BME280;10516;51.518;9.864;2023-07-31T12:41:05;98034.97;;;20.00;74.71
20710;BME280;10516;51.518;9.864;2023-07-31T12:43:32;98038.56;;;19.83;75.95
20710;BME280;10516;51.518;9.864;2023-07-31T12:45:57;98032.56;;;19.78;76.92
20710;BME280;10516;51.518;9.864;2023-07-31T12:48:23;98024.50;;;19.69;76.60
20710;BME280;10516;51.518;9.864;2023-07-31T12:50:48;98031.81;;;19.69;77.05
20710;BME280;10516;51.518;9.864;2023-07-31T12:53:15;97998.56;;;19.60;76.80
20710;BME280;10516;51.518;9.864;2023-07-31T12:55:40;98023.75;;;19.60;77.40
20710;BME280;10516;51.518;9.864;2023-07-31T12:58:06;98011.66;;;19.58;76.59
20710;BME280;10516;51.518;9.864;2023-07-31T13:00:31;98022.94;;;19.60;76.45
20710;BME280;10516;51.518;9.864;2023-07-31T13:02:56;98019.78;;;19.58;77.38
20710;BME280;10516;51.518;9.864;2023-07-31T13:05:22;98028.75;;;19.50;77.75
20710;BME280;10516;51.518;9.864;2023-07-31T13:07:48;98024.25;;;19.54;78.29
20710;BME280;10516;51.518;9.864;2023-07-31T13:10:13;98033.69;;;19.77;79.26